Zero Trim — WCY3091 — position and weather

sailwx.info

Track history (hours):
 
Tides and Currents Weather Stations Pressure Air Temp Water Temp Dewpoint Dewpoint Depression Visibility Wind Speed Wind Dir Waves Ship Positions

Zero Trim

Owner: TRIMBLE, ROBERT M, BELLEVUE, WA. More information available from US FCC via Universal Licensing System and Coast Guard Vessel Documentation Center.

Last reported at 2015-Mar-29 20:00 UTC. Time now 2015-Apr-27 20:46 UTC.
Position N 47°39' W 122°13'.
Warning: this ship's position is 29 days out of date.

Length 23 m.

Type: Pleasure craft. MMSI: 366747760.

Date/timePositionNaut miles runAvg speedWind from/ knotsBaromVisibWave heightAir tempDewpointWater temp
2015-Mar-29 20:00N 47°39' W 122°13'0 0.0
2015-Mar-29 19:24N 47°39' W 122°13'0 0.1
2015-Mar-29 18:23N 47°39' W 122°13'3 7.8
2015-Mar-29 17:59N 47°39' W 122°17'2 5.3
2015-Mar-29 17:33N 47°39' W 122°21'0 3.5
2015-Mar-29 17:29N 47°39' W 122°21'3 2.8
2015-Mar-29 16:33N 47°40' W 122°24'0 3.9
2015-Mar-29 16:29N 47°40' W 122°25'5 5.8
2015-Mar-29 15:32N 47°37' W 122°31'0 0.0
2015-Mar-29 15:29N 47°37' W 122°31'0 0.0
2015-Mar-29 14:32N 47°37' W 122°31'0 0.0
2015-Mar-29 14:23N 47°37' W 122°31'0 0.0
2015-Mar-29 13:32N 47°37' W 122°31'0 0.0
2015-Mar-29 13:29N 47°37' W 122°31'0 0.0
2015-Mar-29 12:32N 47°37' W 122°31'0 0.0
2015-Mar-29 12:23N 47°37' W 122°31'0 0.0
2015-Mar-29 11:32N 47°37' W 122°31'0 0.0
2015-Mar-29 11:23N 47°37' W 122°31'0 0.0
2015-Mar-29 10:32N 47°37' W 122°31'0 0.0
2015-Mar-29 10:17N 47°37' W 122°31'0 0.0
2015-Mar-29 09:32N 47°37' W 122°31'0 0.0
2015-Mar-29 09:32N 47°37' W 122°31'0 0.0
2015-Mar-29 08:32N 47°37' W 122°31'0 0.0
2015-Mar-29 08:32N 47°37' W 122°31'0 0.0
2015-Mar-29 07:32N 47°37' W 122°31'0 0.0
2015-Mar-29 07:32N 47°37' W 122°31'0 0.0
2015-Mar-29 06:32N 47°37' W 122°31'0 0.0
2015-Mar-29 06:32N 47°37' W 122°31'0 0.0
2015-Mar-29 06:02N 47°37' W 122°31'0 0.0
2015-Mar-29 05:32N 47°37' W 122°31'0 0.0
2015-Mar-29 04:32N 47°37' W 122°31'0 0.0
2015-Mar-29 04:32N 47°37' W 122°31'0 0.0
2015-Mar-29 03:32N 47°37' W 122°31'0 0.0
2015-Mar-29 03:32N 47°37' W 122°31'0 0.0
2015-Mar-29 02:32N 47°37' W 122°31'0 0.0
2015-Mar-29 02:32N 47°37' W 122°31'0 0.0
2015-Mar-29 01:32N 47°37' W 122°31'0 0.0
2015-Mar-29 01:26N 47°37' W 122°31'0 0.0
2015-Mar-29 00:32N 47°37' W 122°31'0 0.0
2015-Mar-29 00:32N 47°37' W 122°31'0 0.0
2015-Mar-28 23:29N 47°37' W 122°31'0 0.0
2015-Mar-28 23:26N 47°37' W 122°31'0 0.0
2015-Mar-28 22:32N 47°37' W 122°31'0 0.0
2015-Mar-28 22:26N 47°37' W 122°31'0 0.0
2015-Mar-28 21:29N 47°37' W 122°31'0 0.0
2015-Mar-28 20:56N 47°37' W 122°31'0 0.0
2015-Mar-28 20:26N 47°37' W 122°31'0 0.0
2015-Mar-28 20:26N 47°37' W 122°31'0 0.0
2015-Mar-28 19:29N 47°37' W 122°31'0 0.1
2015-Mar-28 19:26N 47°37' W 122°31'0 0.0
2015-Mar-28 18:32N 47°37' W 122°31'0 0.0
2015-Mar-28 17:32N 47°37' W 122°31'0 0.0
2015-Mar-28 16:44N 47°37' W 122°31'0 0.0
2015-Mar-28 16:32N 47°37' W 122°31'0 0.0
2015-Mar-28 15:53N 47°37' W 122°31'0 0.0
2015-Mar-28 15:33N 47°37' W 122°31'0 0.0
2015-Mar-28 15:32N 47°37' W 122°31'0 0.0
2015-Mar-28 14:33N 47°37' W 122°31'0 0.0
2015-Mar-28 13:32N 47°37' W 122°31'0 0.0
2015-Mar-28 13:20N 47°37' W 122°31'0 0.0
2015-Mar-28 12:32N 47°37' W 122°31'0 0.0
2015-Mar-28 12:20N 47°37' W 122°31'0 0.0
2015-Mar-28 11:32N 47°37' W 122°31'0 0.0
2015-Mar-28 11:20N 47°37' W 122°31'0 0.0
2015-Mar-28 10:32N 47°37' W 122°31'0 0.0
2015-Mar-28 09:44N 47°37' W 122°31'0 0.0
2015-Mar-28 09:32N 47°37' W 122°31'0 0.0
2015-Mar-28 08:26N 47°37' W 122°31'0 0.0
2015-Mar-28 07:44N 47°37' W 122°31'0 0.0
2015-Mar-28 07:30N 47°37' W 122°31'0 0.0
2015-Mar-28 07:29N 47°37' W 122°31'0 0.0
2015-Mar-28 06:21N 47°37' W 122°31'0 0.0
2015-Mar-28 05:27N 47°37' W 122°31'0 0.0
2015-Mar-28 04:33N 47°37' W 122°31'0 0.0
2015-Mar-28 04:32N 47°37' W 122°31'0 0.0
2015-Mar-28 03:30N 47°37' W 122°31'0 0.0
2015-Mar-28 02:33N 47°37' W 122°31'0 0.0
2015-Mar-28 01:42N 47°37' W 122°31'0 0.0
2015-Mar-28 01:33N 47°37' W 122°31'0 0.0
2015-Mar-28 01:27N 47°37' W 122°31'0 0.0
2015-Mar-28 00:33N 47°37' W 122°31'0 0.0
2015-Mar-28 00:27N 47°37' W 122°31'0 0.0
2015-Mar-27 23:27N 47°37' W 122°31'0 0.0
2015-Mar-27 22:30N 47°37' W 122°31'0 0.0
2015-Mar-27 21:33N 47°37' W 122°31'0 0.0
2015-Mar-27 20:33N 47°37' W 122°31'0 0.0
2015-Mar-27 20:27N 47°37' W 122°31'0 0.0
2015-Mar-27 19:33N 47°37' W 122°31'0 0.0
2015-Mar-27 18:33N 47°37' W 122°31'0 0.0
2015-Mar-27 17:33N 47°37' W 122°31'0 0.0
2015-Mar-27 16:27N 47°37' W 122°31'0 0.0
2015-Mar-27 16:05N 47°37' W 122°31'0 0.0
2015-Mar-27 15:30N 47°37' W 122°31'0 0.0
2015-Mar-27 15:20N 47°37' W 122°31'0 0.0
2015-Mar-27 14:33N 47°37' W 122°31'0 0.0
2015-Mar-27 14:15N 47°37' W 122°31'0 0.0
2015-Mar-27 13:33N 47°37' W 122°31'0 0.0
2015-Mar-27 13:20N 47°37' W 122°31'0 0.0
2015-Mar-27 12:33N 47°37' W 122°31'0 0.0
2015-Mar-27 12:29N 47°37' W 122°31'0 0.0
2015-Mar-27 11:33N 47°37' W 122°31'0 0.0
2015-Mar-27 11:14N 47°37' W 122°31'0 0.0
2015-Mar-27 10:33N 47°37' W 122°31'0 0.0
2015-Mar-27 10:29N 47°37' W 122°31'0 0.0
2015-Mar-27 09:33N 47°37' W 122°31'0 0.0
2015-Mar-27 09:29N 47°37' W 122°31'0 0.0
2015-Mar-27 08:33N 47°37' W 122°31'0 0.0
2015-Mar-27 08:30N 47°37' W 122°31'0 0.0
2015-Mar-27 07:33N 47°37' W 122°31'0 0.0
2015-Mar-27 06:33N 47°37' W 122°31'0 0.0
2015-Mar-27 05:33N 47°37' W 122°31'0 0.0
2015-Mar-27 04:33N 47°37' W 122°31'0 0.0
2015-Mar-27 03:33N 47°37' W 122°31'0 0.0
2015-Mar-27 03:29N 47°37' W 122°31'0 0.0
2015-Mar-27 02:33N 47°37' W 122°31'0 0.0
2015-Mar-27 02:29N 47°37' W 122°31'0 0.0
2015-Mar-27 01:33N 47°37' W 122°31'0 0.0
2015-Mar-27 01:29N 47°37' W 122°31'0 0.0
2015-Mar-27 00:33N 47°37' W 122°31'0 0.0
2015-Mar-27 00:29N 47°37' W 122°31'0 0.0
2015-Mar-26 23:30N 47°37' W 122°31'0 0.0
2015-Mar-26 22:15N 47°37' W 122°31'0 0.0
2015-Mar-26 21:38N 47°37' W 122°31'0 0.0
2015-Mar-26 21:33N 47°37' W 122°31'0 0.0
2015-Mar-26 21:29N 47°37' W 122°31'0 0.0
2015-Mar-26 20:31N 47°37' W 122°31'0 0.0
2015-Mar-26 20:18N 47°37' W 122°31'0 0.0
2015-Mar-26 19:33N 47°37' W 122°31'1 5.1
2015-Mar-26 19:22N 47°37' W 122°30'6 3.4
2015-Mar-26 17:39N 47°39' W 122°22'2 5.3
2015-Mar-26 17:22N 47°39' W 122°20'  
2015-Mar-22 18:40N 47°39' W 122°13'  
Track history (hours):
 
Tides and Currents Weather Stations Pressure Air Temp Water Temp Dewpoint Dewpoint Depression Visibility Wind Speed Wind Dir Waves Ship Positions

Zero Trim

Owner: TRIMBLE, ROBERT M, BELLEVUE, WA. More information available from US FCC via Universal Licensing System and Coast Guard Vessel Documentation Center.

Last reported at 2015-Mar-29 20:00 UTC. Time now 2015-Apr-27 20:46 UTC.
Position N 47°39' W 122°13'.
Warning: this ship's position is 29 days out of date.

Length 23 m.

Type: Pleasure craft. MMSI: 366747760.

Date/timePositionNaut miles runAvg speedWind from/ knotsBaromVisibWave heightAir tempDewpointWater temp
2015-Mar-29 20:00N 47°39' W 122°13'0 0.0
2015-Mar-29 19:24N 47°39' W 122°13'0 0.1
2015-Mar-29 18:23N 47°39' W 122°13'3 7.8
2015-Mar-29 17:59N 47°39' W 122°17'2 5.3
2015-Mar-29 17:33N 47°39' W 122°21'0 3.5
2015-Mar-29 17:29N 47°39' W 122°21'3 2.8
2015-Mar-29 16:33N 47°40' W 122°24'0 3.9
2015-Mar-29 16:29N 47°40' W 122°25'5 5.8
2015-Mar-29 15:32N 47°37' W 122°31'0 0.0
2015-Mar-29 15:29N 47°37' W 122°31'0 0.0
2015-Mar-29 14:32N 47°37' W 122°31'0 0.0
2015-Mar-29 14:23N 47°37' W 122°31'0 0.0
2015-Mar-29 13:32N 47°37' W 122°31'0 0.0
2015-Mar-29 13:29N 47°37' W 122°31'0 0.0
2015-Mar-29 12:32N 47°37' W 122°31'0 0.0
2015-Mar-29 12:23N 47°37' W 122°31'0 0.0
2015-Mar-29 11:32N 47°37' W 122°31'0 0.0
2015-Mar-29 11:23N 47°37' W 122°31'0 0.0
2015-Mar-29 10:32N 47°37' W 122°31'0 0.0
2015-Mar-29 10:17N 47°37' W 122°31'0 0.0
2015-Mar-29 09:32N 47°37' W 122°31'0 0.0
2015-Mar-29 09:32N 47°37' W 122°31'0 0.0
2015-Mar-29 08:32N 47°37' W 122°31'0 0.0
2015-Mar-29 08:32N 47°37' W 122°31'0 0.0
2015-Mar-29 07:32N 47°37' W 122°31'0 0.0
2015-Mar-29 07:32N 47°37' W 122°31'0 0.0
2015-Mar-29 06:32N 47°37' W 122°31'0 0.0
2015-Mar-29 06:32N 47°37' W 122°31'0 0.0
2015-Mar-29 06:02N 47°37' W 122°31'0 0.0
2015-Mar-29 05:32N 47°37' W 122°31'0 0.0
2015-Mar-29 04:32N 47°37' W 122°31'0 0.0
2015-Mar-29 04:32N 47°37' W 122°31'0 0.0
2015-Mar-29 03:32N 47°37' W 122°31'0 0.0
2015-Mar-29 03:32N 47°37' W 122°31'0 0.0
2015-Mar-29 02:32N 47°37' W 122°31'0 0.0
2015-Mar-29 02:32N 47°37' W 122°31'0 0.0
2015-Mar-29 01:32N 47°37' W 122°31'0 0.0
2015-Mar-29 01:26N 47°37' W 122°31'0 0.0
2015-Mar-29 00:32N 47°37' W 122°31'0 0.0
2015-Mar-29 00:32N 47°37' W 122°31'0 0.0
2015-Mar-28 23:29N 47°37' W 122°31'0 0.0
2015-Mar-28 23:26N 47°37' W 122°31'0 0.0
2015-Mar-28 22:32N 47°37' W 122°31'0 0.0
2015-Mar-28 22:26N 47°37' W 122°31'0 0.0
2015-Mar-28 21:29N 47°37' W 122°31'0 0.0
2015-Mar-28 20:56N 47°37' W 122°31'0 0.0
2015-Mar-28 20:26N 47°37' W 122°31'0 0.0
2015-Mar-28 20:26N 47°37' W 122°31'0 0.0
2015-Mar-28 19:29N 47°37' W 122°31'0 0.1
2015-Mar-28 19:26N 47°37' W 122°31'0 0.0
2015-Mar-28 18:32N 47°37' W 122°31'0 0.0
2015-Mar-28 17:32N 47°37' W 122°31'0 0.0
2015-Mar-28 16:44N 47°37' W 122°31'0 0.0
2015-Mar-28 16:32N 47°37' W 122°31'0 0.0
2015-Mar-28 15:53N 47°37' W 122°31'0 0.0
2015-Mar-28 15:33N 47°37' W 122°31'0 0.0
2015-Mar-28 15:32N 47°37' W 122°31'0 0.0
2015-Mar-28 14:33N 47°37' W 122°31'0 0.0
2015-Mar-28 13:32N 47°37' W 122°31'0 0.0
2015-Mar-28 13:20N 47°37' W 122°31'0 0.0
2015-Mar-28 12:32N 47°37' W 122°31'0 0.0
2015-Mar-28 12:20N 47°37' W 122°31'0 0.0
2015-Mar-28 11:32N 47°37' W 122°31'0 0.0
2015-Mar-28 11:20N 47°37' W 122°31'0 0.0
2015-Mar-28 10:32N 47°37' W 122°31'0 0.0
2015-Mar-28 09:44N 47°37' W 122°31'0 0.0
2015-Mar-28 09:32N 47°37' W 122°31'0 0.0
2015-Mar-28 08:26N 47°37' W 122°31'0 0.0
2015-Mar-28 07:44N 47°37' W 122°31'0 0.0
2015-Mar-28 07:30N 47°37' W 122°31'0 0.0
2015-Mar-28 07:29N 47°37' W 122°31'0 0.0
2015-Mar-28 06:21N 47°37' W 122°31'0 0.0
2015-Mar-28 05:27N 47°37' W 122°31'0 0.0
2015-Mar-28 04:33N 47°37' W 122°31'0 0.0
2015-Mar-28 04:32N 47°37' W 122°31'0 0.0
2015-Mar-28 03:30N 47°37' W 122°31'0 0.0
2015-Mar-28 02:33N 47°37' W 122°31'0 0.0
2015-Mar-28 01:42N 47°37' W 122°31'0 0.0
2015-Mar-28 01:33N 47°37' W 122°31'0 0.0
2015-Mar-28 01:27N 47°37' W 122°31'0 0.0
2015-Mar-28 00:33N 47°37' W 122°31'0 0.0
2015-Mar-28 00:27N 47°37' W 122°31'0 0.0
2015-Mar-27 23:27N 47°37' W 122°31'0 0.0
2015-Mar-27 22:30N 47°37' W 122°31'0 0.0
2015-Mar-27 21:33N 47°37' W 122°31'0 0.0
2015-Mar-27 20:33N 47°37' W 122°31'0 0.0
2015-Mar-27 20:27N 47°37' W 122°31'0 0.0
2015-Mar-27 19:33N 47°37' W 122°31'0 0.0
2015-Mar-27 18:33N 47°37' W 122°31'0 0.0
2015-Mar-27 17:33N 47°37' W 122°31'0 0.0
2015-Mar-27 16:27N 47°37' W 122°31'0 0.0
2015-Mar-27 16:05N 47°37' W 122°31'0 0.0
2015-Mar-27 15:30N 47°37' W 122°31'0 0.0
2015-Mar-27 15:20N 47°37' W 122°31'0 0.0
2015-Mar-27 14:33N 47°37' W 122°31'0 0.0
2015-Mar-27 14:15N 47°37' W 122°31'0 0.0
2015-Mar-27 13:33N 47°37' W 122°31'0 0.0
2015-Mar-27 13:20N 47°37' W 122°31'0 0.0
2015-Mar-27 12:33N 47°37' W 122°31'0 0.0
2015-Mar-27 12:29N 47°37' W 122°31'0 0.0
2015-Mar-27 11:33N 47°37' W 122°31'0 0.0
2015-Mar-27 11:14N 47°37' W 122°31'0 0.0
2015-Mar-27 10:33N 47°37' W 122°31'0 0.0
2015-Mar-27 10:29N 47°37' W 122°31'0 0.0
2015-Mar-27 09:33N 47°37' W 122°31'0 0.0
2015-Mar-27 09:29N 47°37' W 122°31'0 0.0
2015-Mar-27 08:33N 47°37' W 122°31'0 0.0
2015-Mar-27 08:30N 47°37' W 122°31'0 0.0
2015-Mar-27 07:33N 47°37' W 122°31'0 0.0
2015-Mar-27 06:33N 47°37' W 122°31'0 0.0
2015-Mar-27 05:33N 47°37' W 122°31'0 0.0
2015-Mar-27 04:33N 47°37' W 122°31'0 0.0
2015-Mar-27 03:33N 47°37' W 122°31'0 0.0
2015-Mar-27 03:29N 47°37' W 122°31'0 0.0
2015-Mar-27 02:33N 47°37' W 122°31'0 0.0
2015-Mar-27 02:29N 47°37' W 122°31'0 0.0
2015-Mar-27 01:33N 47°37' W 122°31'0 0.0
2015-Mar-27 01:29N 47°37' W 122°31'0 0.0
2015-Mar-27 00:33N 47°37' W 122°31'0 0.0
2015-Mar-27 00:29N 47°37' W 122°31'0 0.0
2015-Mar-26 23:30N 47°37' W 122°31'0 0.0
2015-Mar-26 22:15N 47°37' W 122°31'0 0.0
2015-Mar-26 21:38N 47°37' W 122°31'0 0.0
2015-Mar-26 21:33N 47°37' W 122°31'0 0.0
2015-Mar-26 21:29N 47°37' W 122°31'0 0.0
2015-Mar-26 20:31N 47°37' W 122°31'0 0.0
2015-Mar-26 20:18N 47°37' W 122°31'0 0.0
2015-Mar-26 19:33N 47°37' W 122°31'1 5.1
2015-Mar-26 19:22N 47°37' W 122°30'6 3.4
2015-Mar-26 17:39N 47°39' W 122°22'2 5.3
2015-Mar-26 17:22N 47°39' W 122°20'  
2015-Mar-22 18:40N 47°39' W 122°13'  

Dump ship's entire track history